Rainbow — WDC3878 — position and weather

sailwx.info

Track history (hours):
 
Tides and Currents Weather Stations Pressure Air Temp Water Temp Dewpoint Dewpoint Depression Visibility Wind Speed Wind Dir Waves Ship Positions

Rainbow

Owner: Providence Steamboat Co., PROVIDENCE, RI. More information available from US FCC via Universal Licensing System and Coast Guard Vessel Documentation Center.

Last reported at 2018-Jun-23 13:36 UTC. Time now 2018-Jun-24 18:46 UTC.
Position N 41°42' W 071°11'.

Length 28 m; draft 4 m.

Type: Tug. MMSI: 367015670.

Date/timePositionNaut miles runAvg speedWind from/ knotsBaromVisibWave heightAir tempDewpointWater temp
2018-Jun-23 13:36N 41°42' W 071°11'0 0.0
2018-Jun-23 13:17N 41°42' W 071°11'0 0.0
2018-Jun-23 13:00N 41°42' W 071°11'0 0.0
2018-Jun-23 12:21N 41°42' W 071°11'0 0.0
2018-Jun-23 11:57N 41°42' W 071°11'0 0.0
2018-Jun-23 11:30N 41°42' W 071°11'0 0.0
2018-Jun-23 11:00N 41°42' W 071°11'0 0.0
2018-Jun-23 10:29N 41°42' W 071°11'0 0.0
2018-Jun-23 10:00N 41°42' W 071°11'0 0.0
2018-Jun-23 09:23N 41°42' W 071°11'11 0.5
2018-Jun-22 09:43N 41°37' W 071°24'11 3.9
2018-Jun-22 06:50N 41°42' W 071°11'  
2018-Jun-19 21:33N 41°40' W 071°19'2 9.7
2018-Jun-19 21:24N 41°41' W 071°19'4 9.6
2018-Jun-19 21:00N 41°44' W 071°22'3 3.5
2018-Jun-19 20:03N 41°47' W 071°23'0 0.5
2018-Jun-19 19:58N 41°47' W 071°23'1 0.4
2018-Jun-19 16:32N 41°46' W 071°22'1 9.3
2018-Jun-19 16:28N 41°45' W 071°22'4 9.2
2018-Jun-19 16:00N 41°42' W 071°19'8 0.2
2018-Jun-18 09:28N 41°35' W 071°24'7 6.1
2018-Jun-18 08:19N 41°38' W 071°16'5 1.3
2018-Jun-18 04:35N 41°42' W 071°11'0 0.0
2018-Jun-18 04:29N 41°42' W 071°11'0 0.0
2018-Jun-18 01:08N 41°42' W 071°11'0 0.0
2018-Jun-18 00:52N 41°42' W 071°11'0 0.0
2018-Jun-18 00:17N 41°42' W 071°11'0 0.0
2018-Jun-17 22:11N 41°42' W 071°11'0 0.0
2018-Jun-17 21:56N 41°42' W 071°11'0 0.0
2018-Jun-17 01:44N 41°42' W 071°11'0 0.0
2018-Jun-17 01:23N 41°42' W 071°11'0 0.0
2018-Jun-17 00:57N 41°42' W 071°11'0 0.0
2018-Jun-17 00:28N 41°42' W 071°11'0 0.0
2018-Jun-16 23:59N 41°42' W 071°11'0 0.0
2018-Jun-16 23:24N 41°42' W 071°11'0 0.0
2018-Jun-16 23:00N 41°42' W 071°11'0 0.0
2018-Jun-16 22:29N 41°42' W 071°11'0 0.0
2018-Jun-16 21:59N 41°42' W 071°11'0 0.0
2018-Jun-16 21:30N 41°42' W 071°11'  
2018-Jun-14 15:39N 41°35' W 071°23'2 0.3
2018-Jun-14 10:01N 41°37' W 071°24'0 1.6
2018-Jun-14 09:59N 41°37' W 071°24'5 5.0
2018-Jun-14 08:58N 41°37' W 071°17'  
Track history (hours):
 
Tides and Currents Weather Stations Pressure Air Temp Water Temp Dewpoint Dewpoint Depression Visibility Wind Speed Wind Dir Waves Ship Positions

Rainbow

Owner: Providence Steamboat Co., PROVIDENCE, RI. More information available from US FCC via Universal Licensing System and Coast Guard Vessel Documentation Center.

Last reported at 2018-Jun-23 13:36 UTC. Time now 2018-Jun-24 18:46 UTC.
Position N 41°42' W 071°11'.

Length 28 m; draft 4 m.

Type: Tug. MMSI: 367015670.

Date/timePositionNaut miles runAvg speedWind from/ knotsBaromVisibWave heightAir tempDewpointWater temp
2018-Jun-23 13:36N 41°42' W 071°11'0 0.0
2018-Jun-23 13:17N 41°42' W 071°11'0 0.0
2018-Jun-23 13:00N 41°42' W 071°11'0 0.0
2018-Jun-23 12:21N 41°42' W 071°11'0 0.0
2018-Jun-23 11:57N 41°42' W 071°11'0 0.0
2018-Jun-23 11:30N 41°42' W 071°11'0 0.0
2018-Jun-23 11:00N 41°42' W 071°11'0 0.0
2018-Jun-23 10:29N 41°42' W 071°11'0 0.0
2018-Jun-23 10:00N 41°42' W 071°11'0 0.0
2018-Jun-23 09:23N 41°42' W 071°11'11 0.5
2018-Jun-22 09:43N 41°37' W 071°24'11 3.9
2018-Jun-22 06:50N 41°42' W 071°11'  
2018-Jun-19 21:33N 41°40' W 071°19'2 9.7
2018-Jun-19 21:24N 41°41' W 071°19'4 9.6
2018-Jun-19 21:00N 41°44' W 071°22'3 3.5
2018-Jun-19 20:03N 41°47' W 071°23'0 0.5
2018-Jun-19 19:58N 41°47' W 071°23'1 0.4
2018-Jun-19 16:32N 41°46' W 071°22'1 9.3
2018-Jun-19 16:28N 41°45' W 071°22'4 9.2
2018-Jun-19 16:00N 41°42' W 071°19'8 0.2
2018-Jun-18 09:28N 41°35' W 071°24'7 6.1
2018-Jun-18 08:19N 41°38' W 071°16'5 1.3
2018-Jun-18 04:35N 41°42' W 071°11'0 0.0
2018-Jun-18 04:29N 41°42' W 071°11'0 0.0
2018-Jun-18 01:08N 41°42' W 071°11'0 0.0
2018-Jun-18 00:52N 41°42' W 071°11'0 0.0
2018-Jun-18 00:17N 41°42' W 071°11'0 0.0
2018-Jun-17 22:11N 41°42' W 071°11'0 0.0
2018-Jun-17 21:56N 41°42' W 071°11'0 0.0
2018-Jun-17 01:44N 41°42' W 071°11'0 0.0
2018-Jun-17 01:23N 41°42' W 071°11'0 0.0
2018-Jun-17 00:57N 41°42' W 071°11'0 0.0
2018-Jun-17 00:28N 41°42' W 071°11'0 0.0
2018-Jun-16 23:59N 41°42' W 071°11'0 0.0
2018-Jun-16 23:24N 41°42' W 071°11'0 0.0
2018-Jun-16 23:00N 41°42' W 071°11'0 0.0
2018-Jun-16 22:29N 41°42' W 071°11'0 0.0
2018-Jun-16 21:59N 41°42' W 071°11'0 0.0
2018-Jun-16 21:30N 41°42' W 071°11'  
2018-Jun-14 15:39N 41°35' W 071°23'2 0.3
2018-Jun-14 10:01N 41°37' W 071°24'0 1.6
2018-Jun-14 09:59N 41°37' W 071°24'5 5.0
2018-Jun-14 08:58N 41°37' W 071°17'  

Dump ship's entire track history